createdAt,value
2018-04-02T00:00:56.479Z,101403.60
2018-04-02T00:03:24.854Z,101408.20
2018-04-02T00:05:53.271Z,101408.87
2018-04-02T00:08:21.613Z,101411.30
2018-04-02T00:10:50.168Z,101406.75
2018-04-02T00:13:18.625Z,101408.36
2018-04-02T00:15:46.950Z,101404.28
2018-04-02T00:18:16.073Z,101411.12
2018-04-02T00:20:44.431Z,101407.58
2018-04-02T00:23:13.591Z,101406.19
2018-04-02T00:25:41.945Z,101405.31
2018-04-02T00:28:10.301Z,101400.23
2018-04-02T00:30:38.927Z,101403.23
2018-04-02T00:33:07.321Z,101405.31
2018-04-02T00:35:35.645Z,101401.48
2018-04-02T00:38:05.368Z,101397.74
2018-04-02T00:40:34.470Z,101399.73
2018-04-02T00:43:03.580Z,101398.75
2018-04-02T00:45:31.912Z,101394.17
2018-04-02T00:48:00.304Z,101390.63
2018-04-02T00:50:28.713Z,101390.01
2018-04-02T00:52:57.824Z,101384.66
2018-04-02T00:55:26.193Z,101390.63
2018-04-02T00:57:54.588Z,101384.03
2018-04-02T01:00:22.928Z,101384.48
2018-04-02T01:02:51.263Z,101388.55
2018-04-02T01:05:19.632Z,101379.56
2018-04-02T01:07:47.965Z,101379.56
2018-04-02T01:10:17.039Z,101378.31
2018-04-02T01:12:45.345Z,101383.86
2018-04-02T01:15:13.675Z,101385.81
2018-04-02T01:17:41.986Z,101382.96
2018-04-02T01:20:10.353Z,101381.98
2018-04-02T01:22:38.691Z,101379.07
2018-04-02T01:25:07.039Z,101375.21
2018-04-02T01:27:35.404Z,101374.94
2018-04-02T01:30:03.818Z,101366.25
2018-04-02T01:32:32.907Z,101363.47
2018-04-02T01:35:01.287Z,101363.08
2018-04-02T01:37:29.685Z,101359.73
2018-04-02T01:39:58.873Z,101364.18
2018-04-02T01:42:27.289Z,101358.47
2018-04-02T01:44:56.439Z,101355.78
2018-04-02T01:47:24.813Z,101353.57
2018-04-02T01:49:53.212Z,101350.80
2018-04-02T01:52:21.619Z,101348.19
2018-04-02T01:54:49.936Z,101340.68
2018-04-02T01:57:19.052Z,101336.79
2018-04-02T01:59:47.425Z,101335.17
2018-04-02T02:02:16.547Z,101333.70
2018-04-02T02:04:44.918Z,101326.22
2018-04-02T02:07:13.273Z,101327.59
2018-04-02T02:09:42.368Z,101323.45
2018-04-02T02:12:11.496Z,101321.42
2018-04-02T02:14:39.804Z,101322.27
2018-04-02T02:17:08.221Z,101321.58
2018-04-02T02:19:36.630Z,101317.89
2018-04-02T02:22:05.753Z,101315.79
2018-04-02T02:24:34.095Z,101316.33
2018-04-02T02:27:02.496Z,101308.77
2018-04-02T02:29:30.870Z,101306.81
2018-04-02T02:32:00.064Z,101302.41
2018-04-02T02:34:29.175Z,101300.54
2018-04-02T02:36:59.403Z,101300.09
2018-04-02T02:39:27.762Z,101290.13
2018-04-02T02:41:56.138Z,101290.22
2018-04-02T02:44:26.065Z,101278.59
2018-04-02T02:46:54.462Z,101277.31
2018-04-02T02:49:22.867Z,101272.63
2018-04-02T02:51:51.186Z,101270.98
2018-04-02T02:54:20.357Z,101265.73
2018-04-02T02:56:48.729Z,101267.94
2018-04-02T02:59:17.074Z,101268.95
2018-04-02T03:01:45.415Z,101261.59
2018-04-02T03:04:13.787Z,101256.98
2018-04-02T03:06:42.212Z,101260.99
2018-04-02T03:09:10.561Z,101258.53
2018-04-02T03:11:38.937Z,101252.60
2018-04-02T03:14:07.354Z,101243.92
2018-04-02T03:16:35.742Z,101236.89
2018-04-02T03:19:04.904Z,101235.83
2018-04-02T03:21:34.082Z,101234.35
2018-04-02T03:24:02.463Z,101228.91
2018-04-02T03:26:30.834Z,101230.16
2018-04-02T03:28:59.209Z,101226.94
2018-04-02T03:31:27.579Z,101225.95
2018-04-02T03:33:56.730Z,101221.84
2018-04-02T03:36:25.101Z,101212.91
2018-04-02T03:38:53.536Z,101212.80
2018-04-02T03:41:22.676Z,101209.02
2018-04-02T03:43:51.108Z,101210.77
2018-04-02T03:46:19.482Z,101207.13
2018-04-02T03:48:47.865Z,101200.02
2018-04-02T03:51:16.474Z,101197.72
2018-04-02T03:53:44.894Z,101191.25
2018-04-02T03:56:13.251Z,101188.94
2018-04-02T03:58:42.358Z,101186.79
2018-04-02T04:01:11.498Z,101185.96
2018-04-02T04:03:39.858Z,101182.22
2018-04-02T04:06:08.242Z,101184.22
2018-04-02T04:08:37.482Z,101180.90
2018-04-02T04:11:05.888Z,101179.09
2018-04-02T04:13:34.246Z,101174.93
2018-04-02T04:16:02.562Z,101172.28
2018-04-02T04:18:31.678Z,101164.58
2018-04-02T04:21:00.102Z,101172.59
2018-04-02T04:23:28.465Z,101166.05
2018-04-02T04:25:57.617Z,101164.31
2018-04-02T04:28:26.842Z,101163.07
2018-04-02T04:30:55.272Z,101158.20
2018-04-02T04:33:23.674Z,101160.77
2018-04-02T04:35:51.997Z,101155.73
2018-04-02T04:38:20.322Z,101151.95
2018-04-02T04:40:48.784Z,101149.15
2018-04-02T04:43:17.183Z,101141.78
2018-04-02T04:45:46.361Z,101139.31
2018-04-02T04:48:14.712Z,101140.82
2018-04-02T04:50:43.799Z,101134.80
2018-04-02T04:53:12.977Z,101126.29
2018-04-02T04:55:41.355Z,101126.47
2018-04-02T04:58:09.778Z,101125.79
2018-04-02T05:00:38.152Z,101124.47
2018-04-02T05:03:07.269Z,101119.17
2018-04-02T05:05:35.737Z,101116.45
2018-04-02T05:08:04.897Z,101117.98
2018-04-02T05:10:33.268Z,101115.19
2018-04-02T05:13:01.650Z,101116.27
2018-04-02T05:15:30.068Z,101113.62
2018-04-02T05:17:58.498Z,101105.11
2018-04-02T05:20:26.922Z,101103.30
2018-04-02T05:22:56.788Z,101107.03
2018-04-02T05:25:25.171Z,101107.86
2018-04-02T05:27:53.529Z,101102.87
2018-04-02T05:30:21.954Z,101095.75
2018-04-02T05:32:50.271Z,101097.34
2018-04-02T05:35:18.649Z,101097.67
2018-04-02T05:37:47.021Z,101098.92
2018-04-02T05:40:15.396Z,101085.27
2018-04-02T05:42:43.772Z,101080.30
2018-04-02T05:45:12.128Z,101074.93
2018-04-02T05:47:40.541Z,101069.64
2018-04-02T05:50:09.672Z,101067.73
2018-04-02T05:52:38.067Z,101068.98
2018-04-02T05:55:06.412Z,101070.39
2018-04-02T05:57:34.741Z,101062.03
2018-04-02T06:00:03.113Z,101064.94
2018-04-02T06:02:32.278Z,101053.61
2018-04-02T06:05:00.606Z,101057.50
2018-04-02T06:07:29.735Z,101051.11
2018-04-02T06:09:58.583Z,101053.59
2018-04-02T06:12:27.701Z,101050.13
2018-04-02T06:14:56.115Z,101055.27
2018-04-02T06:17:24.509Z,101046.92
2018-04-02T06:19:53.578Z,101035.99
2018-04-02T06:22:22.038Z,101031.53
2018-04-02T06:24:51.451Z,101035.84
2018-04-02T06:27:19.781Z,101027.81
2018-04-02T06:29:48.259Z,101026.63
2018-04-02T06:32:16.637Z,101026.22
2018-04-02T06:34:45.728Z,101015.80
2018-04-02T06:37:14.142Z,101016.69
2018-04-02T06:39:42.580Z,101010.13
2018-04-02T06:42:10.960Z,101007.22
2018-04-02T06:44:39.371Z,101006.52
2018-04-02T06:47:07.688Z,101002.09
2018-04-02T06:49:36.779Z,101001.22
2018-04-02T06:52:05.133Z,101002.33
2018-04-02T06:54:33.471Z,100997.75
2018-04-02T06:57:02.551Z,101003.09
2018-04-02T06:59:30.852Z,100993.83
2018-04-02T07:01:59.201Z,100996.37
2018-04-02T07:04:27.541Z,100997.06
2018-04-02T07:06:55.907Z,100996.59
2018-04-02T07:09:24.231Z,100996.48
2018-04-02T07:11:52.568Z,101000.52
2018-04-02T07:14:20.895Z,100989.59
2018-04-02T07:16:49.203Z,100992.58
2018-04-02T07:19:18.272Z,100998.01
2018-04-02T07:21:46.598Z,100989.61
2018-04-02T07:24:14.910Z,100985.20
2018-04-02T07:26:43.279Z,100987.17
2018-04-02T07:29:11.655Z,100987.23
2018-04-02T07:31:39.955Z,100976.07
2018-04-02T07:34:08.269Z,100975.63
2018-04-02T07:36:36.596Z,100974.47
2018-04-02T07:39:05.787Z,100976.15
2018-04-02T07:41:34.134Z,100962.44
2018-04-02T07:44:02.573Z,100958.58
2018-04-02T07:46:30.877Z,100952.44
2018-04-02T07:48:59.227Z,100951.01
2018-04-02T07:51:27.581Z,100952.91
2018-04-02T07:53:55.946Z,100950.97
2018-04-02T07:56:24.279Z,100943.08
2018-04-02T07:58:52.642Z,100936.19
2018-04-02T08:01:20.997Z,100938.52
2018-04-02T08:03:49.406Z,100933.09
2018-04-02T08:06:17.783Z,100923.46
2018-04-02T08:08:46.229Z,100924.72
2018-04-02T08:11:14.549Z,100918.88
2018-04-02T08:13:56.850Z,100912.20
2018-04-02T08:16:25.191Z,100907.53
2018-04-02T08:18:53.564Z,100909.45
2018-04-02T08:21:31.297Z,100896.89
2018-04-02T08:24:01.436Z,100890.78
2018-04-02T08:26:32.661Z,100880.27
2018-04-02T08:29:04.802Z,100874.60
2018-04-02T08:31:33.373Z,100872.86
2018-04-02T08:34:03.378Z,100877.77
2018-04-02T08:36:36.926Z,100881.92
2018-04-02T08:39:14.063Z,100876.80
2018-04-02T08:41:42.848Z,100868.55
2018-04-02T08:44:11.191Z,100881.70
2018-04-02T08:46:40.795Z,100871.11
2018-04-02T08:49:09.111Z,100872.34
2018-04-02T08:51:37.863Z,100865.72
2018-04-02T08:54:06.229Z,100862.35
2018-04-02T08:56:34.599Z,100859.57
2018-04-02T08:59:02.932Z,100866.72
2018-04-02T09:01:32.129Z,100858.58
2018-04-02T09:04:00.471Z,100867.86
2018-04-02T09:06:28.800Z,100867.22
2018-04-02T09:08:57.890Z,100865.73
2018-04-02T09:11:27.087Z,100860.61
2018-04-02T09:13:56.183Z,100855.66
2018-04-02T09:16:25.266Z,100853.32
2018-04-02T09:18:53.732Z,100845.38
2018-04-02T09:21:22.051Z,100844.56
2018-04-02T09:23:51.139Z,100834.88
2018-04-02T09:26:20.233Z,100831.17
2018-04-02T09:28:48.709Z,100825.75
2018-04-02T09:31:17.033Z,100816.74
2018-04-02T09:33:45.404Z,100816.64
2018-04-02T09:36:13.717Z,100806.47
2018-04-02T09:38:42.079Z,100806.16
2018-04-02T09:41:10.420Z,100794.66
2018-04-02T09:43:38.739Z,100804.56
2018-04-02T09:46:07.039Z,100794.67
2018-04-02T09:48:35.383Z,100792.56
2018-04-02T09:51:04.477Z,100786.95
2018-04-02T09:53:33.602Z,100784.82
2018-04-02T09:56:02.555Z,100781.92
2018-04-02T09:58:30.872Z,100776.84
2018-04-02T10:01:00.974Z,100771.41
2018-04-02T10:03:35.685Z,100767.61
2018-04-02T10:06:04.031Z,100763.62
2018-04-02T10:08:32.375Z,100767.94
2018-04-02T10:11:01.444Z,100755.08
2018-04-02T10:13:30.539Z,100754.70
2018-04-02T10:18:34.202Z,100748.77
2018-04-02T10:21:02.523Z,100750.16
2018-04-02T10:23:30.901Z,100739.78
2018-04-02T10:26:00.000Z,100739.52
2018-04-02T10:28:28.484Z,100733.34
2018-04-02T10:30:57.257Z,100728.80
2018-04-02T10:33:25.651Z,100715.33
2018-04-02T10:35:54.057Z,100713.97
2018-04-02T10:38:24.145Z,100717.11
2018-04-02T10:40:52.532Z,100714.98
2018-04-02T10:43:20.939Z,100707.97
2018-04-02T10:45:49.253Z,100701.82
2018-04-02T10:48:19.197Z,100695.03
2018-04-02T10:50:47.573Z,100702.84
2018-04-02T10:53:15.901Z,100694.41
2018-04-02T10:55:44.245Z,100690.12
2018-04-02T10:58:12.587Z,100683.37
2018-04-02T11:00:41.655Z,100679.30
2018-04-02T11:03:10.016Z,100682.42
2018-04-02T11:05:38.386Z,100687.55
2018-04-02T11:08:07.459Z,100681.34
2018-04-02T11:10:36.534Z,100671.16
2018-04-02T11:13:04.859Z,100671.23
2018-04-02T11:15:33.578Z,100672.29
2018-04-02T11:18:01.941Z,100669.20
2018-04-02T11:20:31.003Z,100654.73
2018-04-02T11:23:00.161Z,100644.98
2018-04-02T11:25:28.484Z,100644.73
2018-04-02T11:27:57.584Z,100632.89
2018-04-02T11:30:26.023Z,100636.94
2018-04-02T11:33:00.737Z,100628.68
2018-04-02T11:35:29.125Z,100619.80
2018-04-02T11:37:57.446Z,100612.66
2018-04-02T11:40:26.749Z,100611.84
2018-04-02T11:42:55.130Z,100609.21
2018-04-02T11:45:23.445Z,100604.70
2018-04-02T11:47:51.788Z,100603.77
2018-04-02T11:50:20.115Z,100599.91
2018-04-02T11:52:48.447Z,100595.59
2018-04-02T11:55:16.786Z,100601.09
2018-04-02T11:57:45.131Z,100594.41
2018-04-02T12:00:14.219Z,100588.48
2018-04-02T12:02:42.752Z,100585.70
2018-04-02T12:05:11.069Z,100583.33
2018-04-02T12:07:39.480Z,100583.23
2018-04-02T12:10:08.582Z,100579.89
2018-04-02T12:12:37.711Z,100579.87
2018-04-02T12:15:06.085Z,100576.91
2018-04-02T12:17:34.417Z,100577.81
2018-04-02T12:20:02.819Z,100571.15
2018-04-02T12:22:31.896Z,100568.76
2018-04-02T12:25:00.247Z,100557.50
2018-04-02T12:27:28.597Z,100552.37
2018-04-02T12:29:57.045Z,100557.73
2018-04-02T12:32:25.481Z,100549.15
2018-04-02T12:34:53.798Z,100546.79
2018-04-02T12:37:22.145Z,100537.57
2018-04-02T12:39:51.726Z,100540.35
2018-04-02T12:42:21.327Z,100534.16
2018-04-02T12:44:50.423Z,100531.16
2018-04-02T12:47:19.521Z,100525.25
2018-04-02T12:49:47.835Z,100525.84
2018-04-02T12:52:16.152Z,100511.50
2018-04-02T12:54:44.463Z,100510.22
2018-04-02T12:57:12.793Z,100499.88
2018-04-02T12:59:41.139Z,100495.72
2018-04-02T13:02:10.225Z,100498.84
2018-04-02T13:04:38.587Z,100490.28
2018-04-02T13:07:06.891Z,100489.78
2018-04-02T13:09:35.251Z,100485.70
2018-04-02T13:12:03.622Z,100477.64
2018-04-02T13:14:31.916Z,100470.62
2018-04-02T13:17:00.238Z,100464.41
2018-04-02T13:19:29.329Z,100460.48
2018-04-02T13:21:58.403Z,100448.91
2018-04-02T13:24:26.735Z,100444.97
2018-04-02T13:26:55.054Z,100441.95
2018-04-02T13:29:23.361Z,100434.32
2018-04-02T13:31:52.470Z,100427.66
2018-04-02T13:34:21.623Z,100424.52
2018-04-02T13:36:49.960Z,100418.31
2018-04-02T13:39:18.294Z,100401.20
2018-04-02T13:41:46.640Z,100403.50
2018-04-02T13:44:14.995Z,100402.17
2018-04-02T13:46:43.320Z,100397.27
2018-04-02T13:49:11.655Z,100384.80
2018-04-02T13:51:39.984Z,100383.28
2018-04-02T13:54:08.317Z,100375.72
2018-04-02T13:56:37.396Z,100368.42
2018-04-02T13:59:05.703Z,100356.59
2018-04-02T14:01:34.798Z,100353.03
2018-04-02T14:04:03.887Z,100357.86
2018-04-02T14:06:32.960Z,100344.57
2018-04-02T14:09:01.323Z,100330.12
2018-04-02T14:11:30.417Z,100331.00
2018-04-02T14:13:58.774Z,100322.16
2018-04-02T14:16:27.105Z,100317.31
2018-04-02T14:18:55.473Z,100313.30
2018-04-02T14:21:23.796Z,100303.94
